Time;durP1;ratioP1;P1;durP2;ratioP2;P2;SDS_P1;SDS_P2;PMS_P1;PMS_P2;Temp;Humidity;BMP_temperature;BMP_pressure;BME280_temperature;BME280_humidity;BME280_pressure;Samples;Min_cycle;Max_cycle;Signal;HPM_P1;HPM_P2
2022/08/14 00:02:03;;;;;;;10.50;5.72;;;22.00;93.90;;;;;;6152464;23;20032;-86
2022/08/14 00:04:34;;;;;;;8.68;6.30;;;22.00;94.00;;;;;;6149444;23;20018;-87
2022/08/14 00:07:00;;;;;;;8.40;6.13;;;21.90;94.10;;;;;;6144480;23;20510;-87
2022/08/14 00:09:25;;;;;;;8.20;5.93;;;21.90;94.30;;;;;;6144230;23;20045;-87
2022/08/14 00:11:51;;;;;;;9.70;6.03;;;22.00;94.40;;;;;;6146183;22;20017;-87
2022/08/14 00:14:17;;;;;;;10.57;6.40;;;21.80;94.60;;;;;;6144556;23;20053;-87
2022/08/14 00:16:43;;;;;;;10.07;6.75;;;21.80;94.70;;;;;;6143733;23;20049;-87
2022/08/14 00:19:09;;;;;;;7.80;5.72;;;21.80;94.90;;;;;;6144711;23;20502;-87
2022/08/14 00:21:35;;;;;;;9.35;6.25;;;21.80;95.00;;;;;;6145804;23;20032;-88
2022/08/14 00:24:03;;;;;;;12.60;6.22;;;21.70;95.10;;;;;;6145920;23;20018;-88
2022/08/14 00:26:29;;;;;;;9.48;6.13;;;21.70;95.40;;;;;;6146516;23;20028;-87
2022/08/14 00:28:54;;;;;;;8.63;6.13;;;21.70;95.50;;;;;;6145845;23;20021;-87
2022/08/14 00:31:21;;;;;;;9.18;6.65;;;21.60;95.60;;;;;;6146331;22;20014;-88
2022/08/14 00:33:47;;;;;;;7.82;6.22;;;21.60;95.90;;;;;;6146087;23;20032;-88
2022/08/14 00:36:13;;;;;;;7.60;6.68;;;21.50;96.00;;;;;;6146196;22;20017;-87
2022/08/14 00:38:38;;;;;;;10.48;6.70;;;21.50;96.20;;;;;;6143846;23;20105;-87
2022/08/14 00:41:07;;;;;;;11.20;7.60;;;21.40;96.50;;;;;;6144481;23;20057;-87
2022/08/14 00:43:36;;;;;;;8.15;6.40;;;21.40;96.60;;;;;;6143890;22;20424;-87
2022/08/14 00:46:08;;;;;;;8.73;6.95;;;21.40;96.90;;;;;;6146225;23;20433;-88
2022/08/14 00:48:35;;;;;;;10.23;6.80;;;21.30;97.10;;;;;;6144206;22;20022;-88
2022/08/14 00:51:02;;;;;;;9.77;6.80;;;21.30;97.40;;;;;;6146040;23;20041;-87
2022/08/14 00:53:28;;;;;;;9.05;7.03;;;21.30;97.60;;;;;;6143823;23;20147;-87
2022/08/14 00:55:55;;;;;;;10.13;6.70;;;21.10;97.80;;;;;;6144058;23;20049;-87
2022/08/14 00:58:30;;;;;;;8.38;7.43;;;21.20;98.00;;;;;;6144152;23;20027;-87
2022/08/14 01:00:57;;;;;;;11.93;7.43;;;21.20;98.20;;;;;;6144365;23;20021;-87
2022/08/14 01:03:25;;;;;;;14.43;7.13;;;21.10;98.50;;;;;;6146155;23;20014;-87
2022/08/14 01:05:51;;;;;;;9.15;6.47;;;21.10;98.70;;;;;;6145590;23;20022;-88
2022/08/14 01:08:23;;;;;;;10.77;8.02;;;21.10;99.00;;;;;;6143871;23;20010;-88
2022/08/14 01:10:49;;;;;;;8.25;6.70;;;21.00;99.30;;;;;;6145463;22;20500;-87
2022/08/14 01:13:27;;;;;;;10.18;7.57;;;21.00;99.60;;;;;;6144165;23;20109;-88
2022/08/14 01:15:56;;;;;;;8.85;7.07;;;20.90;99.80;;;;;;6145651;23;20030;-88
2022/08/14 01:21:13;;;;;;;10.45;7.50;;;20.90;99.90;;;;;;6145202;23;20061;-87
2022/08/14 01:23:44;;;;;;;12.98;7.50;;;20.80;99.90;;;;;;6144044;22;20060;-87
2022/08/14 01:26:11;;;;;;;10.63;8.00;;;20.80;99.90;;;;;;6143983;23;20025;-87
2022/08/14 01:28:38;;;;;;;11.55;7.75;;;20.80;99.90;;;;;;6146682;23;20052;-87
2022/08/14 01:31:15;;;;;;;10.73;8.05;;;20.70;99.90;;;;;;6145129;22;20017;-88
2022/08/14 01:33:45;;;;;;;11.18;7.78;;;20.70;99.90;;;;;;6146735;23;20075;-88
2022/08/14 01:36:11;;;;;;;11.60;7.82;;;20.70;99.90;;;;;;6146049;23;20119;-87
2022/08/14 01:38:40;;;;;;;10.90;8.23;;;20.60;99.90;;;;;;6146771;23;20013;-88
2022/08/14 01:41:12;;;;;;;10.57;7.93;;;20.60;99.90;;;;;;6146644;23;20408;-87
2022/08/14 01:43:44;;;;;;;13.40;8.82;;;20.60;99.90;;;;;;6147025;23;20013;-88
2022/08/14 01:46:10;;;;;;;15.00;8.27;;;20.60;99.90;;;;;;6146905;23;20100;-88
2022/08/14 01:48:38;;;;;;;10.02;8.40;;;20.50;99.90;;;;;;6145177;23;20041;-88
2022/08/14 01:51:08;;;;;;;11.48;8.38;;;20.40;99.90;;;;;;6146906;23;20014;-87
2022/08/14 01:53:33;;;;;;;10.20;8.40;;;20.40;99.90;;;;;;6145172;23;20097;-87
2022/08/14 01:56:03;;;;;;;9.95;8.00;;;20.40;99.90;;;;;;6120769;23;20057;-88
2022/08/14 01:58:29;;;;;;;11.90;8.70;;;20.40;99.90;;;;;;6121277;23;20022;-87
2022/08/14 02:00:57;;;;;;;14.30;8.93;;;20.40;99.90;;;;;;6144873;23;20034;-87
2022/08/14 02:03:25;;;;;;;13.25;9.20;;;20.40;99.90;;;;;;6145029;23;20469;-87
2022/08/14 02:05:51;;;;;;;13.48;9.85;;;20.30;99.90;;;;;;6119762;23;20374;-87
2022/08/14 02:08:17;;;;;;;12.43;9.75;;;20.20;99.90;;;;;;6147057;22;20028;-87
2022/08/14 02:10:42;;;;;;;15.85;9.75;;;20.50;99.90;;;;;;6144984;22;20045;-87
2022/08/14 02:13:10;;;;;;;12.85;10.32;;;20.30;99.90;;;;;;6146871;23;20096;-87
2022/08/14 02:15:39;;;;;;;14.85;9.88;;;20.30;99.90;;;;;;6146332;23;20017;-87
2022/08/14 02:18:06;;;;;;;11.75;9.30;;;20.30;99.90;;;;;;6147076;23;20147;-87
2022/08/14 02:20:32;;;;;;;14.43;10.27;;;20.30;99.90;;;;;;6146473;23;20021;-87
2022/08/14 02:23:01;;;;;;;14.82;10.35;;;20.20;99.90;;;;;;6145218;23;20013;-87
2022/08/14 02:25:29;;;;;;;11.68;9.57;;;20.50;99.90;;;;;;6147069;23;20052;-88
2022/08/14 02:27:55;;;;;;;13.07;10.07;;;20.20;99.90;;;;;;6144569;23;20025;-87
2022/08/14 02:30:23;;;;;;;13.57;10.10;;;20.10;99.90;;;;;;6147112;23;20364;-87
2022/08/14 02:32:50;;;;;;;14.02;10.02;;;20.20;99.90;;;;;;6144726;23;20028;-87
2022/08/14 02:35:17;;;;;;;16.48;10.43;;;20.20;99.90;;;;;;6144628;23;20307;-88
2022/08/14 02:37:47;;;;;;;19.65;10.25;;;20.10;99.90;;;;;;6144672;23;20036;-87
2022/08/14 02:40:14;;;;;;;13.45;9.63;;;20.10;99.90;;;;;;6144846;23;20021;-87
2022/08/14 02:42:40;;;;;;;13.15;10.15;;;20.10;99.90;;;;;;6146780;23;20080;-87
2022/08/14 02:45:06;;;;;;;14.20;9.75;;;20.10;99.90;;;;;;6146819;23;20041;-87
2022/08/14 02:47:33;;;;;;;13.30;9.68;;;20.00;99.90;;;;;;6145113;23;20017;-88
2022/08/14 02:49:58;;;;;;;13.00;10.15;;;20.00;99.90;;;;;;6147554;23;20048;-87
2022/08/14 02:52:26;;;;;;;15.02;9.77;;;20.00;99.90;;;;;;6146898;23;20029;-87
2022/08/14 02:54:52;;;;;;;11.90;10.20;;;20.00;99.90;;;;;;6144199;23;20018;-87
2022/08/14 02:57:20;;;;;;;14.20;10.07;;;20.00;99.90;;;;;;6120044;23;20025;-88
2022/08/14 02:59:48;;;;;;;14.02;11.00;;;19.80;99.90;;;;;;6144621;23;20018;-87
2022/08/14 03:02:15;;;;;;;12.77;10.27;;;19.90;99.90;;;;;;6119473;23;20040;-87
2022/08/14 03:04:41;;;;;;;16.95;11.07;;;19.80;99.90;;;;;;6144887;23;20013;-87
2022/08/14 03:07:08;;;;;;;15.80;11.13;;;19.80;99.90;;;;;;6145426;23;20341;-88
2022/08/14 03:09:38;;;;;;;14.73;11.82;;;19.80;99.90;;;;;;6146207;23;20092;-87
2022/08/14 03:12:04;;;;;;;15.75;11.25;;;19.80;99.90;;;;;;6145458;23;20022;-87
2022/08/14 03:14:34;;;;;;;12.93;11.07;;;19.80;99.90;;;;;;6146730;23;20022;-87
2022/08/14 03:17:00;;;;;;;14.32;11.38;;;19.80;99.90;;;;;;6146015;23;20025;-87
2022/08/14 03:19:25;;;;;;;15.48;12.18;;;19.70;99.90;;;;;;6146859;23;20009;-87
2022/08/14 03:21:52;;;;;;;13.00;10.43;;;19.80;99.90;;;;;;6146919;23;20025;-87
2022/08/14 03:24:20;;;;;;;12.68;10.88;;;19.70;99.90;;;;;;6146853;23;20020;-87
2022/08/14 03:26:46;;;;;;;14.32;11.50;;;19.70;99.90;;;;;;6146166;23;20017;-87
2022/08/14 03:29:19;;;;;;;13.80;12.05;;;19.70;99.90;;;;;;6146680;23;20018;-87
2022/08/14 03:31:46;;;;;;;12.98;11.10;;;19.70;99.90;;;;;;6145500;23;20021;-87
2022/08/14 03:34:12;;;;;;;14.00;10.73;;;19.70;99.90;;;;;;6146811;23;20018;-87
2022/08/14 03:36:39;;;;;;;13.77;10.45;;;19.70;99.90;;;;;;6146093;23;20013;-87
2022/08/14 03:39:06;;;;;;;12.45;10.70;;;19.70;99.90;;;;;;6146668;23;20033;-87
2022/08/14 03:41:32;;;;;;;14.02;11.05;;;19.60;99.90;;;;;;6146579;23;20088;-87
2022/08/14 03:44:00;;;;;;;15.90;11.65;;;19.60;99.90;;;;;;6144544;23;20102;-88
2022/08/14 03:46:28;;;;;;;13.70;10.77;;;19.60;99.90;;;;;;6144273;23;20457;-88
2022/08/14 03:48:55;;;;;;;13.65;11.32;;;19.60;99.90;;;;;;6144675;23;20045;-87
2022/08/14 03:51:27;;;;;;;15.02;11.88;;;19.50;99.90;;;;;;6146087;22;20461;-87
2022/08/14 03:53:58;;;;;;;14.68;11.50;;;19.50;99.90;;;;;;6146031;23;20457;-87
2022/08/14 03:56:25;;;;;;;15.93;12.23;;;19.50;99.90;;;;;;6144687;23;20021;-87
2022/08/14 03:58:54;;;;;;;14.75;11.70;;;19.50;99.90;;;;;;6143933;23;20026;-87
2022/08/14 04:01:22;;;;;;;12.30;11.00;;;19.50;99.90;;;;;;6144368;23;20380;-87
2022/08/14 04:03:48;;;;;;;14.85;11.70;;;19.50;99.90;;;;;;6144242;23;20017;-87
2022/08/14 04:06:15;;;;;;;13.88;10.88;;;19.40;99.90;;;;;;6144648;23;20382;-87
2022/08/14 04:08:41;;;;;;;13.02;11.45;;;19.40;99.90;;;;;;6144392;23;20330;-87
2022/08/14 04:11:08;;;;;;;12.82;11.02;;;19.40;99.90;;;;;;6146357;23;20385;-88
2022/08/14 04:13:37;;;;;;;12.80;11.15;;;19.40;99.90;;;;;;6143938;23;20021;-87
2022/08/14 04:16:06;;;;;;;16.15;11.63;;;19.40;99.90;;;;;;6144260;23;20096;-87
2022/08/14 04:18:32;;;;;;;15.55;11.80;;;19.30;99.90;;;;;;6146367;23;20013;-88
2022/08/14 04:20:58;;;;;;;13.20;11.80;;;19.30;99.90;;;;;;6146288;23;20361;-87
2022/08/14 04:23:24;;;;;;;13.77;11.52;;;19.30;99.90;;;;;;6147003;23;20071;-87
2022/08/14 04:25:53;;;;;;;14.88;10.93;;;19.30;99.90;;;;;;6144048;23;20093;-86
2022/08/14 04:28:19;;;;;;;13.70;11.68;;;19.30;99.90;;;;;;6146266;23;20018;-87
2022/08/14 04:30:45;;;;;;;12.73;10.95;;;19.30;99.90;;;;;;6145270;23;20029;-87
2022/08/14 04:33:10;;;;;;;12.65;11.23;;;19.30;99.90;;;;;;6144636;23;20386;-87
2022/08/14 04:35:37;;;;;;;13.77;11.73;;;19.30;99.90;;;;;;6144042;23;20049;-87
2022/08/14 04:43:39;;;;;;;16.73;11.88;;;19.40;99.90;;;;;;6143376;23;20057;-87
2022/08/14 04:46:06;;;;;;;13.20;11.80;;;19.30;99.90;;;;;;6146356;23;20113;-87
2022/08/14 04:48:32;;;;;;;14.63;12.25;;;19.40;99.90;;;;;;6146451;23;20055;-87
2022/08/14 04:50:58;;;;;;;15.15;11.57;;;19.30;99.90;;;;;;6145952;23;20010;-87
2022/08/14 04:53:27;;;;;;;16.98;12.10;;;19.40;99.90;;;;;;6145949;23;20067;-87
2022/08/14 04:55:53;;;;;;;13.60;11.50;;;19.30;99.90;;;;;;6143742;23;20530;-87
2022/08/14 04:58:24;;;;;;;13.48;11.38;;;19.30;99.90;;;;;;6143961;23;20018;-87
2022/08/14 05:00:50;;;;;;;13.93;11.20;;;19.30;99.90;;;;;;6145830;23;20021;-87
2022/08/14 05:03:21;;;;;;;14.88;10.73;;;19.40;99.90;;;;;;6143867;23;20372;-87
2022/08/14 05:05:48;;;;;;;13.35;11.38;;;19.40;99.90;;;;;;6146327;23;20075;-87
2022/08/14 05:08:14;;;;;;;12.27;10.90;;;19.40;99.90;;;;;;6144286;23;20461;-86
2022/08/14 05:10:42;;;;;;;13.57;11.05;;;19.40;99.90;;;;;;6145737;23;20025;-88
2022/08/14 05:13:09;;;;;;;14.70;11.05;;;19.40;99.90;;;;;;6143946;23;20025;-87
2022/08/14 05:15:36;;;;;;;11.93;10.63;;;19.50;99.90;;;;;;6143565;23;20022;-87
2022/08/14 05:18:11;;;;;;;11.90;10.70;;;19.50;99.90;;;;;;6119861;23;20021;-87
2022/08/14 05:20:44;;;;;;;14.95;11.52;;;19.50;99.90;;;;;;6145437;23;20017;-87
2022/08/14 05:23:11;;;;;;;13.15;10.45;;;19.50;99.90;;;;;;6143968;23;20026;-87
2022/08/14 05:25:37;;;;;;;12.18;10.80;;;19.50;99.90;;;;;;6145606;23;20017;-87
2022/08/14 05:28:09;;;;;;;13.95;10.90;;;19.50;99.90;;;;;;6143382;23;20566;-87
2022/08/14 05:30:35;;;;;;;14.13;11.07;;;19.50;99.90;;;;;;6145374;23;20025;-87
2022/08/14 05:33:01;;;;;;;14.55;11.10;;;19.50;99.90;;;;;;6146419;23;20029;-87
2022/08/14 05:35:27;;;;;;;15.85;11.15;;;19.60;99.90;;;;;;6145922;23;20764;-87
2022/08/14 05:37:52;;;;;;;14.43;11.50;;;19.70;99.90;;;;;;6145385;23;20338;-87
2022/08/14 05:40:18;;;;;;;14.85;11.32;;;19.60;99.90;;;;;;6144242;23;20024;-86
2022/08/14 05:42:44;;;;;;;15.68;11.45;;;19.60;99.90;;;;;;6118351;23;20079;-87
2022/08/14 05:45:13;;;;;;;13.27;11.27;;;19.70;99.90;;;;;;6145873;23;20041;-87
2022/08/14 05:47:40;;;;;;;12.63;11.32;;;19.70;99.90;;;;;;6145367;23;20014;-87
2022/08/14 05:50:11;;;;;;;13.27;11.63;;;19.70;99.90;;;;;;6143995;23;20017;-87
2022/08/14 05:52:37;;;;;;;15.75;12.00;;;19.70;99.90;;;;;;6143510;23;20049;-87
2022/08/14 05:55:04;;;;;;;15.43;11.60;;;19.80;99.90;;;;;;6119695;23;20020;-87
2022/08/14 05:57:30;;;;;;;14.27;11.80;;;19.80;99.90;;;;;;6143025;23;20033;-87
2022/08/14 05:59:55;;;;;;;14.45;11.52;;;19.80;99.90;;;;;;6143922;23;20014;-86
2022/08/14 06:02:21;;;;;;;15.70;11.70;;;19.80;99.90;;;;;;6145255;23;20070;-87
2022/08/14 06:04:47;;;;;;;13.13;11.77;;;19.80;99.90;;;;;;6144009;23;20045;-87
2022/08/14 06:07:16;;;;;;;12.70;11.40;;;19.80;99.90;;;;;;6145350;23;20040;-87
2022/08/14 06:09:41;;;;;;;14.10;11.20;;;19.90;99.90;;;;;;6143536;23;20017;-87
2022/08/14 06:12:08;;;;;;;12.07;10.25;;;19.90;99.90;;;;;;6143409;23;20048;-87
2022/08/14 06:14:34;;;;;;;13.75;10.85;;;20.00;99.90;;;;;;6119867;23;20470;-87
2022/08/14 06:17:00;;;;;;;14.55;11.30;;;20.00;99.90;;;;;;6145317;23;20021;-87
2022/08/14 06:19:25;;;;;;;14.27;11.00;;;20.10;99.90;;;;;;6120825;23;20013;-87
2022/08/14 06:21:51;;;;;;;14.30;11.13;;;20.10;99.90;;;;;;6146824;23;20021;-87
2022/08/14 06:24:19;;;;;;;15.98;11.90;;;20.20;99.90;;;;;;6147017;23;20048;-87
2022/08/14 06:26:45;;;;;;;15.05;11.35;;;20.20;99.90;;;;;;6146113;23;20026;-87
2022/08/14 06:29:11;;;;;;;14.57;12.18;;;20.30;99.90;;;;;;6120269;23;20024;-87
2022/08/14 06:31:36;;;;;;;14.40;12.40;;;20.30;99.90;;;;;;6146598;23;20018;-87
2022/08/14 06:34:02;;;;;;;13.25;11.20;;;20.40;99.90;;;;;;6144990;23;20080;-87
2022/08/14 06:36:28;;;;;;;11.65;10.45;;;20.40;99.90;;;;;;6146265;23;20032;-87
2022/08/14 06:38:54;;;;;;;17.85;11.52;;;20.40;99.90;;;;;;6146644;23;20045;-87
2022/08/14 06:41:22;;;;;;;16.38;12.70;;;20.50;99.90;;;;;;6144386;23;20067;-86
2022/08/14 06:43:47;;;;;;;15.32;12.38;;;20.50;99.90;;;;;;6146532;23;20053;-87
2022/08/14 06:46:13;;;;;;;15.20;12.25;;;20.60;99.90;;;;;;6145104;23;20029;-88
2022/08/14 06:48:39;;;;;;;13.65;12.25;;;20.60;99.90;;;;;;6144768;23;20048;-87
2022/08/14 06:51:04;;;;;;;15.45;12.70;;;20.70;99.90;;;;;;6147081;23;20030;-87
2022/08/14 06:53:30;;;;;;;13.93;12.10;;;20.70;99.90;;;;;;6145195;23;20021;-87
2022/08/14 06:55:56;;;;;;;16.73;12.75;;;20.80;99.90;;;;;;6144060;23;20017;-87
2022/08/14 06:58:22;;;;;;;15.32;12.43;;;20.90;99.90;;;;;;6145175;23;20441;-87
2022/08/14 07:06:17;;;;;;;12.90;11.25;;;21.00;99.90;;;;;;6146605;23;20021;-87
2022/08/14 07:08:43;;;;;;;12.68;10.70;;;21.10;99.90;;;;;;6146326;23;20028;-88
2022/08/14 07:11:10;;;;;;;12.23;10.35;;;21.10;99.90;;;;;;6146461;23;20016;-88
2022/08/14 07:13:36;;;;;;;16.02;11.63;;;21.20;99.90;;;;;;6145732;23;20319;-87
2022/08/14 07:16:01;;;;;;;13.45;10.63;;;21.30;99.90;;;;;;6145034;23;20130;-87
2022/08/14 07:18:32;;;;;;;18.40;11.68;;;21.30;99.90;;;;;;6144995;23;20026;-87
2022/08/14 07:21:00;;;;;;;14.18;10.27;;;21.40;99.90;;;;;;6144979;23;20018;-87
2022/08/14 07:23:26;;;;;;;14.88;10.20;;;21.50;99.90;;;;;;6144267;22;20043;-87
2022/08/14 07:25:55;;;;;;;12.15;9.25;;;21.60;99.90;;;;;;6145854;23;20048;-87
2022/08/14 07:28:24;;;;;;;11.82;10.25;;;21.60;99.90;;;;;;6145023;23;20013;-87
2022/08/14 07:30:51;;;;;;;14.35;10.40;;;21.70;99.90;;;;;;6144665;23;20051;-88
2022/08/14 07:33:17;;;;;;;13.40;11.05;;;21.70;99.90;;;;;;6144798;23;20017;-88
2022/08/14 07:35:43;;;;;;;14.68;9.95;;;21.70;99.90;;;;;;6146176;23;20066;-88
2022/08/14 07:38:17;;;;;;;12.48;10.18;;;21.80;99.90;;;;;;6144316;23;20022;-87
2022/08/14 07:40:44;;;;;;;12.88;10.75;;;21.90;99.90;;;;;;6146082;23;20020;-87
2022/08/14 07:43:09;;;;;;;9.98;8.95;;;21.90;99.90;;;;;;6144813;23;20329;-87
2022/08/14 07:45:35;;;;;;;11.35;9.40;;;22.10;99.90;;;;;;6144363;23;20020;-88
2022/08/14 07:48:00;;;;;;;10.32;8.88;;;22.10;99.90;;;;;;6144751;23;20021;-87
2022/08/14 07:50:26;;;;;;;11.40;9.15;;;22.20;99.90;;;;;;6144820;23;20049;-88
2022/08/14 07:52:52;;;;;;;12.43;9.57;;;22.30;99.90;;;;;;6144081;23;20062;-88
2022/08/14 07:55:18;;;;;;;13.07;9.45;;;22.40;99.90;;;;;;6169773;22;20017;-87
2022/08/14 07:57:45;;;;;;;14.90;9.73;;;22.50;99.90;;;;;;6146420;22;20064;-88
2022/08/14 08:00:15;;;;;;;10.15;8.23;;;22.50;99.90;;;;;;6144703;23;20017;-87
2022/08/14 08:02:43;;;;;;;13.43;9.43;;;22.60;99.90;;;;;;6145792;23;20017;-87
2022/08/14 08:05:10;;;;;;;10.77;8.73;;;22.70;99.90;;;;;;6146522;23;20088;-87
2022/08/14 08:07:36;;;;;;;11.70;8.93;;;22.90;99.90;;;;;;6144053;23;20110;-87
2022/08/14 08:10:30;;;;;;;13.77;8.57;;;23.00;99.90;;;;;;6146583;23;20021;-88
2022/08/14 08:13:07;;;;;;;12.20;8.85;;;23.20;99.90;;;;;;6146146;23;20033;-87
2022/08/14 08:15:39;;;;;;;10.65;8.32;;;23.40;99.90;;;;;;6144421;23;20341;-88
2022/08/14 08:18:07;;;;;;;10.20;8.20;;;23.60;99.90;;;;;;6120000;23;20034;-88
2022/08/14 08:20:41;;;;;;;10.00;7.00;;;23.80;99.90;;;;;;6144288;23;20017;-88
2022/08/14 08:23:08;;;;;;;9.52;7.30;;;23.90;99.90;;;;;;6145997;23;20017;-87
2022/08/14 08:25:38;;;;;;;11.93;7.25;;;24.20;99.90;;;;;;6145572;23;20471;-87
2022/08/14 08:28:07;;;;;;;10.57;7.72;;;24.30;99.90;;;;;;6146079;22;20244;-88
2022/08/14 08:30:36;;;;;;;8.25;7.35;;;24.50;99.90;;;;;;6146515;23;20013;-88
2022/08/14 08:33:03;;;;;;;9.95;6.95;;;24.60;99.90;;;;;;6144461;23;20024;-88
2022/08/14 08:35:32;;;;;;;10.63;7.65;;;24.80;99.90;;;;;;6145161;23;20017;-88
2022/08/14 08:38:16;;;;;;;9.07;6.97;;;24.90;99.90;;;;;;6119671;23;20013;-88
2022/08/14 08:40:50;;;;;;;8.63;6.95;;;25.10;99.90;;;;;;6143696;23;20013;-88
2022/08/14 08:43:20;;;;;;;10.20;7.22;;;25.30;99.90;;;;;;6145009;23;20018;-88
2022/08/14 08:45:54;;;;;;;8.95;6.40;;;25.40;99.90;;;;;;6143765;22;20022;-87
2022/08/14 08:48:21;;;;;;;7.80;6.80;;;25.60;99.90;;;;;;6146363;23;20017;-87
2022/08/14 08:50:47;;;;;;;8.60;6.57;;;25.60;99.90;;;;;;6143668;23;20014;-88
2022/08/14 08:53:13;;;;;;;8.07;6.40;;;25.80;99.90;;;;;;6119804;23;20022;-88
2022/08/14 08:55:40;;;;;;;9.30;6.20;;;25.90;99.90;;;;;;6145229;22;20017;-88
2022/08/14 08:58:08;;;;;;;7.85;6.10;;;26.00;98.80;;;;;;6144538;23;20029;-88
2022/08/14 09:00:36;;;;;;;8.18;6.43;;;26.00;98.90;;;;;;6144243;23;20025;-88
2022/08/14 09:03:14;;;;;;;7.45;6.53;;;26.10;98.40;;;;;;6145970;23;20089;-88
2022/08/14 09:06:04;;;;;;;7.80;6.53;;;26.20;98.50;;;;;;6145259;23;20067;-88
2022/08/14 09:08:31;;;;;;;9.10;6.43;;;26.30;97.70;;;;;;6146339;23;20028;-88
2022/08/14 09:10:58;;;;;;;9.48;6.53;;;26.40;98.00;;;;;;6145914;23;20013;-89
2022/08/14 09:13:25;;;;;;;10.45;6.55;;;26.50;97.50;;;;;;6145976;23;20093;-88
2022/08/14 09:15:52;;;;;;;8.90;6.07;;;26.60;97.30;;;;;;6145860;23;20458;-88
2022/08/14 09:18:20;;;;;;;7.97;6.25;;;26.70;97.30;;;;;;6145802;23;20025;-88
2022/08/14 09:20:49;;;;;;;8.77;5.93;;;26.80;97.20;;;;;;6142974;23;20135;-88
2022/08/14 09:23:15;;;;;;;7.80;5.93;;;26.80;97.10;;;;;;6146053;23;20049;-89
2022/08/14 09:25:44;;;;;;;10.45;6.07;;;27.00;96.70;;;;;;6144240;23;20025;-88
2022/08/14 09:28:11;;;;;;;9.05;6.00;;;27.10;96.30;;;;;;6143882;23;20059;-88
2022/08/14 09:30:41;;;;;;;7.45;5.05;;;27.20;96.20;;;;;;6143753;23;20097;-88
2022/08/14 09:33:17;;;;;;;7.85;5.90;;;27.30;95.90;;;;;;6144130;22;20088;-88
2022/08/14 09:36:09;;;;;;;7.43;5.70;;;27.40;95.60;;;;;;6143318;23;20018;-89
2022/08/14 09:38:41;;;;;;;8.52;6.10;;;27.60;95.60;;;;;;6143678;23;20368;-89
2022/08/14 09:41:28;;;;;;;12.63;6.40;;;27.70;95.80;;;;;;6144356;23;20025;-88
2022/08/14 09:44:14;;;;;;;7.72;6.05;;;27.80;95.30;;;;;;6144219;23;20018;-88
2022/08/14 09:46:54;;;;;;;7.53;6.10;;;27.80;94.60;;;;;;6153975;23;20021;-88
2022/08/14 09:49:35;;;;;;;6.53;5.30;;;27.90;94.40;;;;;;6144143;23;20472;-89
2022/08/14 09:52:05;;;;;;;9.43;5.53;;;27.90;93.90;;;;;;6145435;23;20056;-88
2022/08/14 09:54:45;;;;;;;6.15;4.80;;;28.10;94.20;;;;;;6145285;23;20025;-89
2022/08/14 09:57:29;;;;;;;8.32;5.20;;;28.20;93.50;;;;;;6146697;23;20010;-88
2022/08/14 09:59:54;;;;;;;7.77;5.00;;;28.20;93.40;;;;;;6146809;23;20041;-89
2022/08/14 10:02:26;;;;;;;8.70;5.00;;;28.30;93.70;;;;;;6146767;23;20025;-88
2022/08/14 10:05:08;;;;;;;6.03;4.90;;;28.40;93.50;;;;;;6146288;23;20010;-89
2022/08/14 10:07:50;;;;;;;6.35;4.45;;;28.50;93.00;;;;;;6146781;23;20060;-89
2022/08/14 10:10:32;;;;;;;5.63;4.65;;;28.50;92.90;;;;;;6147094;23;20014;-88
2022/08/14 10:13:00;;;;;;;7.05;5.28;;;28.70;92.70;;;;;;6145370;22;20056;-88
2022/08/14 10:15:28;;;;;;;5.68;4.50;;;28.80;93.00;;;;;;6144647;23;20013;-89
2022/08/14 10:18:06;;;;;;;7.07;4.72;;;28.90;92.80;;;;;;6120003;23;20441;-88
2022/08/14 10:20:52;;;;;;;6.80;4.65;;;29.00;92.20;;;;;;6145309;23;20017;-89
2022/08/14 10:23:20;;;;;;;5.78;4.43;;;29.00;91.40;;;;;;6145103;23;20449;-88
2022/08/14 10:25:51;;;;;;;5.20;4.53;;;29.10;92.10;;;;;;6144791;23;20445;-89
2022/08/14 10:28:20;;;;;;;8.68;4.50;;;29.20;91.90;;;;;;6147257;23;20009;-89
2022/08/14 10:30:52;;;;;;;5.78;4.07;;;29.30;91.80;;;;;;6144444;23;20018;-88
2022/08/14 10:33:30;;;;;;;5.75;4.80;;;29.40;91.70;;;;;;6120096;23;20461;-88
2022/08/14 10:35:59;;;;;;;5.75;4.30;;;29.50;91.40;;;;;;6119864;23;20021;-89
2022/08/14 10:38:35;;;;;;;6.80;4.50;;;29.50;91.50;;;;;;6120665;23;20068;-88
2022/08/14 10:41:12;;;;;;;6.22;4.47;;;29.60;90.30;;;;;;6146404;22;20017;-89
2022/08/14 10:43:40;;;;;;;5.88;4.30;;;29.70;90.00;;;;;;6144723;23;20064;-89
2022/08/14 10:46:16;;;;;;;7.10;4.45;;;29.70;90.70;;;;;;6144743;23;20470;-89
2022/08/14 10:48:56;;;;;;;6.35;4.93;;;29.70;90.20;;;;;;6144815;23;20024;-89
2022/08/14 10:51:29;;;;;;;5.25;4.57;;;29.60;90.50;;;;;;6144856;23;20017;-89
2022/08/14 10:53:57;;;;;;;5.72;5.13;;;29.70;90.60;;;;;;6144856;23;20138;-89
2022/08/14 10:56:34;;;;;;;9.13;5.15;;;29.80;90.80;;;;;;6120018;23;20127;-88
2022/08/14 10:59:07;;;;;;;6.03;4.90;;;29.90;90.60;;;;;;6146910;23;20021;-89
2022/08/14 11:01:35;;;;;;;6.97;5.18;;;30.10;90.50;;;;;;6143890;23;20058;-90
2022/08/14 11:04:01;;;;;;;6.10;5.50;;;30.10;90.50;;;;;;6146522;23;20021;-88
2022/08/14 11:06:29;;;;;;;9.85;5.20;;;30.20;90.40;;;;;;6145018;23;20014;-88
2022/08/14 11:08:55;;;;;;;6.15;4.45;;;30.30;90.20;;;;;;6144650;23;20021;-89
2022/08/14 11:11:24;;;;;;;5.63;4.45;;;30.50;90.20;;;;;;6146950;23;20059;-89
2022/08/14 11:13:50;;;;;;;7.00;4.75;;;30.50;89.80;;;;;;6144824;22;20355;-90
2022/08/14 11:16:16;;;;;;;6.47;5.55;;;30.70;88.70;;;;;;6144695;23;20597;-89
2022/08/14 11:18:47;;;;;;;6.45;5.25;;;30.80;88.60;;;;;;6144474;23;20028;-89
2022/08/14 11:21:17;;;;;;;7.03;5.45;;;30.90;87.80;;;;;;6145110;23;20014;-89
2022/08/14 11:23:45;;;;;;;6.32;4.78;;;30.90;87.40;;;;;;6144957;23;20346;-89
2022/08/14 11:26:14;;;;;;;8.85;5.93;;;30.90;85.90;;;;;;6144846;23;20100;-89
2022/08/14 11:28:42;;;;;;;6.45;5.85;;;31.00;86.50;;;;;;6119922;23;20437;-89
2022/08/14 11:31:09;;;;;;;7.68;5.13;;;31.10;87.30;;;;;;6144469;23;20074;-88
2022/08/14 11:33:37;;;;;;;7.93;4.88;;;31.10;86.80;;;;;;6144030;22;20466;-89
2022/08/14 11:36:06;;;;;;;12.75;5.75;;;31.10;86.90;;;;;;6144991;23;20021;-89
2022/08/14 11:38:36;;;;;;;7.57;5.50;;;30.90;87.50;;;;;;6144897;23;20020;-89
2022/08/14 11:41:02;;;;;;;7.70;5.28;;;30.90;86.60;;;;;;6144532;23;20342;-89
2022/08/14 11:43:27;;;;;;;6.88;5.60;;;30.90;86.20;;;;;;6145502;23;20013;-89
2022/08/14 11:45:53;;;;;;;6.95;5.55;;;30.80;86.20;;;;;;6143331;23;20014;-89
2022/08/14 11:48:24;;;;;;;6.82;5.10;;;30.90;86.50;;;;;;6144717;23;20010;-89
2022/08/14 11:50:54;;;;;;;6.90;5.30;;;30.90;86.00;;;;;;6144614;23;20041;-90
2022/08/14 11:53:25;;;;;;;6.63;5.78;;;31.10;85.50;;;;;;6144692;23;20047;-89
2022/08/14 11:56:01;;;;;;;5.90;5.25;;;31.20;85.50;;;;;;6144275;22;20013;-89
2022/08/14 11:58:37;;;;;;;8.32;5.63;;;31.20;84.00;;;;;;6119931;23;20017;-89
2022/08/14 12:01:06;;;;;;;9.10;5.53;;;31.30;83.70;;;;;;6120492;23;20340;-89
2022/08/14 12:03:38;;;;;;;5.95;5.35;;;31.30;84.50;;;;;;6146441;23;20024;-89
2022/08/14 12:06:11;;;;;;;8.60;5.35;;;31.40;84.40;;;;;;6146669;22;20100;-89
2022/08/14 12:08:38;;;;;;;7.40;5.32;;;31.40;83.80;;;;;;6119637;23;20204;-89
2022/08/14 12:11:06;;;;;;;8.13;5.10;;;31.40;83.90;;;;;;6144264;23;20365;-89
2022/08/14 12:13:33;;;;;;;7.32;4.80;;;31.50;83.70;;;;;;6143809;22;20449;-89
2022/08/14 12:16:06;;;;;;;9.25;5.18;;;31.60;85.70;;;;;;6144882;23;20010;-89
2022/08/14 12:18:40;;;;;;;7.28;5.50;;;31.70;82.60;;;;;;6146602;23;20092;-89
2022/08/14 12:21:24;;;;;;;;;;;31.80;82.80;;;;;;6144885;23;20345;-89
2022/08/14 12:24:01;;;;;;;6.10;5.15;;;31.90;82.00;;;;;;6144367;23;19921;-90
2022/08/14 12:26:27;;;;;;;6.80;5.20;;;31.90;81.90;;;;;;6145031;23;20075;-90
2022/08/14 12:29:13;;;;;;;6.32;4.95;;;32.00;82.40;;;;;;6145274;23;20450;-89
2022/08/14 12:31:40;;;;;;;6.90;4.68;;;32.10;82.00;;;;;;6144125;22;20017;-89
2022/08/14 12:34:08;;;;;;;11.27;5.30;;;32.30;81.90;;;;;;6120235;23;20124;-90
2022/08/14 12:36:34;;;;;;;5.82;4.97;;;32.30;81.20;;;;;;6119637;23;20378;-90
2022/08/14 12:39:04;;;;;;;7.45;5.20;;;32.40;81.10;;;;;;6145166;23;20060;-90
2022/08/14 12:41:33;;;;;;;6.70;5.18;;;32.40;80.40;;;;;;6144429;23;20017;-89
2022/08/14 12:44:01;;;;;;;7.97;4.95;;;32.40;80.50;;;;;;6145495;23;20528;-88
2022/08/14 12:46:32;;;;;;;7.38;4.57;;;32.50;79.90;;;;;;6144197;23;20043;-90
2022/08/14 12:49:03;;;;;;;8.32;4.90;;;32.60;78.90;;;;;;6144568;23;20060;-89
2022/08/14 12:51:29;;;;;;;8.13;5.00;;;32.70;79.10;;;;;;6144833;23;20053;-90
2022/08/14 12:53:56;;;;;;;6.25;4.43;;;32.80;79.00;;;;;;6144850;23;20028;-89
2022/08/14 12:56:26;;;;;;;6.38;4.82;;;32.90;78.40;;;;;;6145806;23;20088;-89
2022/08/14 12:58:54;;;;;;;8.13;4.93;;;32.80;77.90;;;;;;6143511;23;20025;-90
2022/08/14 13:01:29;;;;;;;8.10;5.03;;;32.80;77.90;;;;;;6145933;23;20096;-89